createdAt,value
2019-04-07T00:01:22.074Z,5.90
2019-04-07T00:03:48.455Z,5.80
2019-04-07T00:06:14.914Z,5.80
2019-04-07T00:08:41.434Z,5.70
2019-04-07T00:11:08.376Z,5.80
2019-04-07T00:13:34.732Z,5.80
2019-04-07T00:16:01.354Z,5.80
2019-04-07T00:18:28.644Z,5.80
2019-04-07T00:20:55.229Z,5.80
2019-04-07T00:23:21.551Z,5.80
2019-04-07T00:25:48.921Z,5.70
2019-04-07T00:28:15.361Z,5.70
2019-04-07T00:30:42.507Z,5.60
2019-04-07T00:33:09.128Z,5.60
2019-04-07T00:35:35.443Z,5.50
2019-04-07T00:38:02.221Z,5.50
2019-04-07T00:40:29.456Z,5.50
2019-04-07T00:42:55.835Z,5.40
2019-04-07T00:45:22.106Z,5.30
2019-04-07T00:47:48.362Z,5.20
2019-04-07T00:50:15.311Z,5.10
2019-04-07T00:52:41.846Z,5.10
2019-04-07T00:55:08.865Z,5.00
2019-04-07T00:57:35.392Z,4.90
2019-04-07T01:00:02.657Z,4.80
2019-04-07T01:02:29.271Z,4.80
2019-04-07T01:04:56.148Z,4.70
2019-04-07T01:07:22.651Z,4.60
2019-04-07T01:09:49.376Z,4.50
2019-04-07T01:12:15.995Z,4.50
2019-04-07T01:14:44.129Z,4.40
2019-04-07T01:17:11.577Z,4.40
2019-04-07T01:19:38.116Z,4.40
2019-04-07T01:22:04.466Z,4.30
2019-04-07T01:24:30.806Z,4.20
2019-04-07T01:26:58.912Z,4.10
2019-04-07T01:29:25.524Z,4.00
2019-04-07T01:31:51.922Z,4.00
2019-04-07T01:34:18.474Z,3.90
2019-04-07T01:36:45.471Z,3.80
2019-04-07T01:39:11.991Z,3.70
2019-04-07T01:41:43.066Z,3.70
2019-04-07T01:44:14.417Z,3.70
2019-04-07T01:46:48.241Z,3.70
2019-04-07T01:49:16.472Z,3.70
2019-04-07T01:51:45.415Z,3.80
2019-04-07T01:54:19.943Z,3.70
2019-04-07T01:56:54.562Z,3.80
2019-04-07T01:59:32.015Z,3.70
2019-04-07T02:02:09.509Z,3.80
2019-04-07T02:04:40.544Z,3.70
2019-04-07T02:07:25.594Z,3.70
2019-04-07T02:09:59.834Z,3.70
2019-04-07T02:12:40.163Z,3.70
2019-04-07T02:15:09.707Z,3.80
2019-04-07T02:17:38.214Z,3.80
2019-04-07T02:20:12.981Z,3.80
2019-04-07T02:22:46.546Z,3.80
2019-04-07T02:25:17.363Z,3.80
2019-04-07T02:27:52.067Z,3.80
2019-04-07T02:30:26.464Z,3.80
2019-04-07T02:33:10.553Z,3.70
2019-04-07T02:35:51.150Z,3.70
2019-04-07T02:38:31.655Z,3.70
2019-04-07T02:41:00.044Z,3.70
2019-04-07T02:43:28.274Z,3.70
2019-04-07T02:46:05.888Z,3.70
2019-04-07T02:48:43.058Z,3.70
2019-04-07T02:51:24.317Z,3.70
2019-04-07T02:53:59.396Z,3.70
2019-04-07T02:56:37.103Z,3.70
2019-04-07T02:59:08.114Z,3.70
2019-04-07T03:01:43.413Z,3.70
2019-04-07T03:04:24.458Z,3.70
2019-04-07T03:06:53.569Z,3.70
2019-04-07T03:09:28.867Z,3.70
2019-04-07T03:12:13.757Z,3.70
2019-04-07T03:14:56.112Z,3.70
2019-04-07T03:17:27.448Z,3.80
2019-04-07T03:19:56.222Z,3.80
2019-04-07T03:22:24.484Z,3.80
2019-04-07T03:24:56.883Z,3.70
2019-04-07T03:27:38.145Z,3.60
2019-04-07T03:30:20.793Z,3.60
2019-04-07T03:33:10.437Z,3.50
2019-04-07T03:35:41.148Z,3.40
2019-04-07T03:38:19.023Z,3.30
2019-04-07T03:41:03.322Z,3.30
2019-04-07T03:43:50.902Z,3.30
2019-04-07T03:46:26.773Z,3.20
2019-04-07T03:48:55.480Z,3.20
2019-04-07T03:51:30.148Z,3.10
2019-04-07T03:54:00.487Z,3.10
2019-04-07T03:56:31.902Z,3.10
2019-04-07T03:59:03.449Z,3.00
2019-04-07T04:01:49.517Z,3.00
2019-04-07T04:04:32.797Z,3.00
2019-04-07T04:07:18.035Z,3.00
2019-04-07T04:09:38.377Z,3.00
2019-04-07T04:12:18.432Z,3.10
2019-04-07T04:14:59.855Z,3.10
2019-04-07T04:17:27.134Z,3.00
2019-04-07T04:19:54.052Z,3.00
2019-04-07T04:22:21.062Z,3.00
2019-04-07T04:24:49.972Z,3.00
2019-04-07T04:27:16.980Z,3.00
2019-04-07T04:29:44.554Z,2.90
2019-04-07T04:32:11.129Z,2.90
2019-04-07T04:34:37.750Z,2.90
2019-04-07T04:37:04.091Z,2.90
2019-04-07T04:39:31.415Z,2.90
2019-04-07T04:41:57.866Z,2.80
2019-04-07T04:44:24.231Z,2.80
2019-04-07T04:46:50.886Z,2.80
2019-04-07T04:49:17.177Z,2.80
2019-04-07T04:51:44.318Z,2.90
2019-04-07T04:54:11.081Z,2.90
2019-04-07T04:56:37.515Z,2.80
2019-04-07T04:59:04.179Z,2.80
2019-04-07T05:01:31.033Z,2.70
2019-04-07T05:03:57.439Z,2.70
2019-04-07T05:06:24.267Z,2.60
2019-04-07T05:08:51.156Z,2.60
2019-04-07T05:11:17.587Z,2.50
2019-04-07T05:13:43.922Z,2.50
2019-04-07T05:16:10.617Z,2.50
2019-04-07T05:18:37.154Z,2.50
2019-04-07T05:21:04.245Z,2.50
2019-04-07T05:23:30.684Z,2.50
2019-04-07T05:25:57.021Z,2.50
2019-04-07T05:28:23.263Z,2.50
2019-04-07T05:30:50.132Z,2.60
2019-04-07T05:33:16.590Z,2.60
2019-04-07T05:35:42.957Z,2.70
2019-04-07T05:38:09.615Z,2.70
2019-04-07T05:40:36.594Z,2.80
2019-04-07T05:43:03.130Z,2.80
2019-04-07T05:45:29.478Z,2.90
2019-04-07T05:47:55.755Z,2.90
2019-04-07T05:50:22.293Z,3.00
2019-04-07T05:52:48.856Z,3.10
2019-04-07T05:55:15.260Z,3.20
2019-04-07T05:57:42.137Z,3.30
2019-04-07T06:00:14.235Z,3.30
2019-04-07T06:02:39.217Z,3.40
2019-04-07T06:05:06.507Z,3.50
2019-04-07T06:07:35.660Z,3.60
2019-04-07T06:10:02.293Z,3.70
2019-04-07T06:12:30.729Z,3.80
2019-04-07T06:14:57.297Z,3.90
2019-04-07T06:17:26.377Z,3.90
2019-04-07T06:19:53.859Z,4.00
2019-04-07T06:22:21.029Z,4.10
2019-04-07T06:24:48.763Z,4.20
2019-04-07T06:27:16.990Z,4.40
2019-04-07T06:29:43.466Z,4.50
2019-04-07T06:32:11.139Z,4.60
2019-04-07T06:34:41.052Z,4.70
2019-04-07T06:37:06.761Z,5.00
2019-04-07T06:39:34.026Z,5.30
2019-04-07T06:42:01.545Z,5.70
2019-04-07T06:44:29.046Z,6.20
2019-04-07T06:47:06.553Z,6.40
2019-04-07T06:49:46.333Z,6.50
2019-04-07T06:52:24.793Z,6.60
2019-04-07T06:55:09.856Z,6.60
2019-04-07T06:57:53.778Z,6.70
2019-04-07T07:00:34.276Z,6.80
2019-04-07T07:03:04.330Z,6.90
2019-04-07T07:05:34.949Z,7.10
2019-04-07T07:08:10.039Z,7.40
2019-04-07T07:10:50.565Z,7.80
2019-04-07T07:13:28.473Z,8.40
2019-04-07T07:15:51.976Z,8.90
2019-04-07T07:18:24.100Z,9.50
2019-04-07T07:21:03.126Z,10.20
2019-04-07T07:23:34.962Z,11.00
2019-04-07T07:26:03.149Z,11.70
2019-04-07T07:28:29.570Z,12.40
2019-04-07T07:30:55.971Z,13.10
2019-04-07T07:33:22.384Z,13.70
2019-04-07T07:35:49.300Z,14.30
2019-04-07T07:38:15.664Z,14.80
2019-04-07T07:40:42.567Z,15.30
2019-04-07T07:43:09.707Z,15.80
2019-04-07T07:45:37.162Z,16.30
2019-04-07T07:48:04.193Z,16.70
2019-04-07T07:50:30.524Z,16.70
2019-04-07T07:52:57.125Z,16.40
2019-04-07T07:55:23.785Z,16.10
2019-04-07T07:57:54.155Z,16.00
2019-04-07T08:00:19.837Z,15.80
2019-04-07T08:02:48.893Z,16.00
2019-04-07T08:05:14.813Z,16.30
2019-04-07T08:07:45.708Z,16.70
2019-04-07T08:10:09.938Z,17.20
2019-04-07T08:12:36.313Z,17.70
2019-04-07T08:15:04.899Z,17.70
2019-04-07T08:17:33.148Z,17.80
2019-04-07T08:19:59.956Z,17.20
2019-04-07T08:22:32.518Z,17.20
2019-04-07T08:24:54.605Z,17.20
2019-04-07T08:27:21.655Z,17.20
2019-04-07T08:29:48.553Z,16.90
2019-04-07T08:32:14.834Z,16.30
2019-04-07T08:34:41.544Z,15.90
2019-04-07T08:37:08.398Z,15.80
2019-04-07T08:39:36.100Z,15.60
2019-04-07T08:42:07.689Z,15.50
2019-04-07T08:44:31.570Z,15.30
2019-04-07T08:46:58.922Z,15.40
2019-04-07T08:49:26.529Z,15.40
2019-04-07T08:51:53.862Z,15.30
2019-04-07T08:54:20.293Z,15.50
2019-04-07T08:56:46.933Z,15.40
2019-04-07T08:59:16.959Z,15.50
2019-04-07T09:01:41.709Z,15.40
2019-04-07T09:04:09.347Z,15.20
2019-04-07T09:06:36.011Z,15.10
2019-04-07T09:09:07.785Z,15.20
2019-04-07T09:11:34.618Z,15.20
2019-04-07T09:14:00.922Z,15.50
2019-04-07T09:16:30.234Z,15.70
2019-04-07T09:19:04.914Z,15.50
2019-04-07T09:21:47.565Z,15.60
2019-04-07T09:24:19.589Z,15.60
2019-04-07T09:26:53.508Z,15.70
2019-04-07T09:29:30.004Z,15.90
2019-04-07T09:32:04.507Z,16.20
2019-04-07T09:34:35.613Z,16.10
2019-04-07T09:37:23.381Z,16.00
2019-04-07T09:39:59.548Z,16.10
2019-04-07T09:42:30.922Z,16.10
2019-04-07T09:44:59.074Z,15.80
2019-04-07T09:47:43.096Z,15.60
2019-04-07T09:50:29.826Z,15.40
2019-04-07T09:52:57.988Z,15.70
2019-04-07T09:55:35.489Z,16.10
2019-04-07T09:58:08.055Z,16.60
2019-04-07T10:00:36.771Z,17.00
2019-04-07T10:03:12.713Z,17.30
2019-04-07T10:05:40.265Z,17.40
2019-04-07T10:08:11.972Z,17.50
2019-04-07T10:10:39.862Z,17.40
2019-04-07T10:13:11.350Z,17.30
2019-04-07T10:15:56.426Z,17.30
2019-04-07T10:18:25.208Z,17.50
2019-04-07T10:21:10.101Z,17.80
2019-04-07T10:23:55.261Z,18.00
2019-04-07T10:26:33.635Z,18.30
2019-04-07T10:29:14.291Z,18.70
2019-04-07T10:31:57.682Z,19.10
2019-04-07T10:34:28.941Z,19.30
2019-04-07T10:37:02.664Z,19.60
2019-04-07T10:39:36.874Z,19.90
2019-04-07T10:42:05.466Z,20.30
2019-04-07T10:44:37.777Z,20.70
2019-04-07T10:47:07.133Z,21.00
2019-04-07T10:49:36.222Z,20.50
2019-04-07T10:52:07.243Z,20.60
2019-04-07T10:54:35.473Z,21.00
2019-04-07T10:57:04.914Z,21.70
2019-04-07T10:59:42.549Z,22.40
2019-04-07T11:02:27.612Z,22.80
2019-04-07T11:05:02.911Z,23.40
2019-04-07T11:07:31.674Z,24.30
2019-04-07T11:10:01.183Z,25.10
2019-04-07T11:12:32.614Z,25.40
2019-04-07T11:15:13.784Z,25.40
2019-04-07T11:17:42.062Z,25.10
2019-04-07T11:20:11.443Z,25.10
2019-04-07T11:22:52.091Z,25.30
2019-04-07T11:25:29.543Z,25.60
2019-04-07T11:28:14.745Z,26.10
2019-04-07T11:30:49.687Z,26.50
2019-04-07T11:33:36.213Z,26.90
2019-04-07T11:36:05.932Z,27.20
2019-04-07T11:38:34.346Z,26.20
2019-04-07T11:41:05.851Z,25.80
2019-04-07T11:43:42.879Z,26.00
2019-04-07T11:46:27.137Z,26.20
2019-04-07T11:49:10.758Z,25.80
2019-04-07T11:51:37.969Z,25.90
2019-04-07T11:54:06.481Z,25.70
2019-04-07T11:56:38.213Z,26.00
2019-04-07T11:59:08.652Z,26.30
2019-04-07T12:01:43.700Z,26.70
2019-04-07T12:04:26.949Z,27.10
2019-04-07T12:07:12.803Z,27.00
2019-04-07T12:09:42.083Z,27.40
2019-04-07T12:12:11.443Z,27.80
2019-04-07T12:14:56.585Z,27.90
2019-04-07T12:17:42.088Z,27.70
2019-04-07T12:20:12.472Z,27.70
2019-04-07T12:22:42.606Z,27.60
2019-04-07T12:25:15.710Z,27.30
2019-04-07T12:27:49.093Z,27.20
2019-04-07T12:30:22.523Z,27.60
2019-04-07T12:32:52.585Z,28.30
2019-04-07T12:35:39.807Z,28.80
2019-04-07T12:38:20.881Z,29.20
2019-04-07T12:41:13.364Z,28.90
2019-04-07T12:43:49.575Z,28.40
2019-04-07T12:46:21.099Z,27.20
2019-04-07T12:48:50.035Z,26.10
2019-04-07T12:51:22.314Z,25.10
2019-04-07T12:53:56.399Z,23.70
2019-04-07T12:56:39.520Z,23.00
2019-04-07T12:59:07.973Z,22.30
2019-04-07T13:01:47.057Z,21.90
2019-04-07T13:04:14.347Z,21.30
2019-04-07T13:06:45.241Z,20.60
2019-04-07T13:09:31.438Z,20.20
2019-04-07T13:12:08.273Z,19.90
2019-04-07T13:14:47.545Z,19.90
2019-04-07T13:17:37.828Z,19.80
2019-04-07T13:20:08.420Z,20.00
2019-04-07T13:22:36.722Z,20.10
2019-04-07T13:25:07.871Z,20.10
2019-04-07T13:27:41.880Z,20.10
2019-04-07T13:30:19.055Z,20.50
2019-04-07T13:32:52.419Z,20.90
2019-04-07T13:35:21.602Z,21.20
2019-04-07T13:37:50.097Z,21.40
2019-04-07T13:40:19.792Z,21.60
2019-04-07T13:43:00.707Z,21.40
2019-04-07T13:45:27.969Z,21.40
2019-04-07T13:48:00.326Z,21.20
2019-04-07T13:50:31.955Z,21.00
2019-04-07T13:53:15.074Z,20.80
2019-04-07T13:55:58.207Z,20.40
2019-04-07T13:58:42.879Z,20.20
2019-04-07T14:01:31.308Z,20.20
2019-04-07T14:04:06.796Z,20.10
2019-04-07T14:06:45.902Z,19.90
2019-04-07T14:09:14.725Z,19.70
2019-04-07T14:12:05.526Z,19.40
2019-04-07T14:14:34.404Z,19.20
2019-04-07T14:17:06.277Z,18.90
2019-04-07T14:19:37.357Z,18.70
2019-04-07T14:22:06.475Z,18.50
2019-04-07T14:24:47.253Z,18.40
2019-04-07T14:27:25.129Z,18.40
2019-04-07T14:30:02.860Z,18.10
2019-04-07T14:32:37.391Z,17.90
2019-04-07T14:35:08.338Z,17.80
2019-04-07T14:37:37.279Z,17.70
2019-04-07T14:40:20.409Z,17.60
2019-04-07T14:42:49.627Z,17.30
2019-04-07T14:45:35.191Z,17.10
2019-04-07T14:48:07.347Z,17.00
2019-04-07T14:50:52.655Z,16.90
2019-04-07T14:53:36.613Z,16.80
2019-04-07T14:56:07.717Z,16.90
2019-04-07T14:58:41.272Z,17.00
2019-04-07T15:01:09.460Z,17.00
2019-04-07T15:03:39.481Z,17.00
2019-04-07T15:06:09.818Z,17.00
2019-04-07T15:08:44.344Z,17.00
2019-04-07T15:11:29.849Z,17.00
2019-04-07T15:13:57.902Z,17.00
2019-04-07T15:16:24.383Z,16.90
2019-04-07T15:18:53.320Z,16.90
2019-04-07T15:21:20.032Z,16.80
2019-04-07T15:23:47.343Z,16.70
2019-04-07T15:26:16.674Z,16.70
2019-04-07T15:28:43.615Z,16.60
2019-04-07T15:31:11.720Z,16.60
2019-04-07T15:33:38.365Z,16.50
2019-04-07T15:36:07.679Z,16.50
2019-04-07T15:38:33.402Z,16.50
2019-04-07T15:41:00.943Z,16.40
2019-04-07T15:43:27.892Z,16.50
2019-04-07T15:45:54.656Z,16.50
2019-04-07T15:48:24.891Z,16.50
2019-04-07T15:50:49.619Z,16.50
2019-04-07T15:53:18.743Z,16.40
2019-04-07T15:55:50.974Z,16.40
2019-04-07T15:58:14.964Z,16.30
2019-04-07T16:00:41.996Z,16.30
2019-04-07T16:03:12.774Z,16.20
2019-04-07T16:05:42.042Z,16.10
2019-04-07T16:08:06.299Z,16.10
2019-04-07T16:10:32.697Z,15.90
2019-04-07T16:12:59.578Z,15.90
2019-04-07T16:15:27.190Z,15.80
2019-04-07T16:17:55.487Z,15.80
2019-04-07T16:20:25.090Z,15.70
2019-04-07T16:22:51.907Z,15.60
2019-04-07T16:25:22.721Z,15.50
2019-04-07T16:27:49.474Z,15.40
2019-04-07T16:30:19.029Z,15.40
2019-04-07T16:32:45.553Z,15.30
2019-04-07T16:35:14.936Z,15.20
2019-04-07T16:37:40.785Z,15.20
2019-04-07T16:40:10.378Z,15.20
2019-04-07T16:42:35.972Z,15.10
2019-04-07T16:45:03.272Z,15.10
2019-04-07T16:47:34.585Z,15.00
2019-04-07T16:49:58.715Z,14.90
2019-04-07T16:52:25.526Z,14.90
2019-04-07T16:54:52.676Z,14.90
2019-04-07T16:57:18.994Z,14.90
2019-04-07T16:59:45.372Z,14.80
2019-04-07T17:02:14.536Z,14.70
2019-04-07T17:04:41.625Z,14.70
2019-04-07T17:07:13.312Z,14.60
2019-04-07T17:09:37.454Z,14.60
2019-04-07T17:12:04.016Z,14.50
2019-04-07T17:14:34.440Z,14.40
2019-04-07T17:16:59.079Z,14.30
2019-04-07T17:19:27.286Z,14.20
2019-04-07T17:21:55.490Z,14.10
2019-04-07T17:24:24.928Z,14.10
2019-04-07T17:26:50.117Z,14.00
2019-04-07T17:29:19.029Z,13.80
2019-04-07T17:31:45.597Z,13.70
2019-04-07T17:34:13.426Z,13.70
2019-04-07T17:36:40.929Z,13.60
2019-04-07T17:39:15.610Z,13.60
2019-04-07T17:41:41.953Z,13.60
2019-04-07T17:44:24.479Z,13.60
2019-04-07T17:46:58.688Z,13.50
2019-04-07T17:49:44.441Z,13.50
2019-04-07T17:52:24.770Z,13.40
2019-04-07T17:55:00.066Z,13.40
2019-04-07T17:57:29.207Z,13.30
2019-04-07T17:59:58.272Z,13.20
2019-04-07T18:02:32.256Z,13.20
2019-04-07T18:05:12.680Z,13.20
2019-04-07T18:07:58.873Z,13.10
2019-04-07T18:10:33.489Z,13.00
2019-04-07T18:13:01.744Z,13.00
2019-04-07T18:15:43.413Z,12.90
2019-04-07T18:18:12.182Z,12.90
2019-04-07T18:20:41.382Z,12.80
2019-04-07T18:23:26.567Z,12.80
2019-04-07T18:25:55.517Z,12.70
2019-04-07T18:28:30.590Z,12.70
2019-04-07T18:31:02.890Z,12.60
2019-04-07T18:33:29.846Z,12.60
2019-04-07T18:36:07.963Z,12.50
2019-04-07T18:38:45.672Z,12.50
2019-04-07T18:41:14.593Z,12.50
2019-04-07T18:43:52.197Z,12.50
2019-04-07T18:46:34.979Z,12.50
2019-04-07T18:49:06.504Z,12.40
2019-04-07T18:51:40.251Z,12.30
2019-04-07T18:54:24.829Z,12.30
2019-04-07T18:56:54.558Z,12.20
2019-04-07T18:59:41.065Z,12.20
2019-04-07T19:02:13.172Z,12.10
2019-04-07T19:04:42.434Z,12.00
2019-04-07T19:07:16.685Z,12.00
2019-04-07T19:10:07.197Z,12.00
2019-04-07T19:12:28.086Z,12.00
2019-04-07T19:15:12.072Z,11.90
2019-04-07T19:17:43.372Z,11.90
2019-04-07T19:20:15.048Z,11.80
2019-04-07T19:22:43.358Z,11.80
2019-04-07T19:25:29.193Z,11.70
2019-04-07T19:28:03.491Z,11.70
2019-04-07T19:30:50.060Z,11.70
2019-04-07T19:33:17.487Z,11.70
2019-04-07T19:36:02.817Z,11.70
2019-04-07T19:38:36.676Z,11.60
2019-04-07T19:41:04.751Z,11.60
2019-04-07T19:43:35.089Z,11.50
2019-04-07T19:46:03.574Z,11.50
2019-04-07T19:48:39.070Z,11.40
2019-04-07T19:51:15.495Z,11.40
2019-04-07T19:53:45.330Z,11.30
2019-04-07T19:56:29.990Z,11.20
2019-04-07T19:58:58.470Z,11.10
2019-04-07T20:01:42.205Z,11.00
2019-04-07T20:04:12.667Z,10.90
2019-04-07T20:06:44.169Z,10.90
2019-04-07T20:09:30.034Z,10.80
2019-04-07T20:12:00.538Z,10.80
2019-04-07T20:14:51.971Z,10.70
2019-04-07T20:17:34.357Z,10.70
2019-04-07T20:20:19.509Z,10.60
2019-04-07T20:23:02.785Z,10.50
2019-04-07T20:25:37.582Z,10.50
2019-04-07T20:28:08.770Z,10.50
2019-04-07T20:30:37.819Z,10.50
2019-04-07T20:33:06.504Z,10.50
2019-04-07T20:35:35.024Z,10.60
2019-04-07T20:38:09.388Z,10.60
2019-04-07T20:40:44.065Z,10.60
2019-04-07T20:43:21.806Z,10.70
2019-04-07T20:46:04.618Z,10.70
2019-04-07T20:48:49.673Z,10.70
2019-04-07T20:51:18.993Z,10.80
2019-04-07T20:53:53.677Z,10.70
2019-04-07T20:56:36.874Z,10.70
2019-04-07T20:59:11.761Z,10.70
2019-04-07T21:01:42.941Z,10.70
2019-04-07T21:04:10.638Z,10.70
2019-04-07T21:06:48.094Z,10.70
2019-04-07T21:09:17.399Z,10.60
2019-04-07T21:12:02.937Z,10.60
2019-04-07T21:14:34.753Z,10.60
2019-04-07T21:17:07.414Z,10.60
2019-04-07T21:19:52.338Z,10.60
2019-04-07T21:22:23.893Z,10.50
2019-04-07T21:24:52.971Z,10.50
2019-04-07T21:27:28.394Z,10.50
2019-04-07T21:30:01.011Z,10.50
2019-04-07T21:32:29.334Z,10.50
2019-04-07T21:35:12.972Z,10.40
2019-04-07T21:37:45.056Z,10.40
2019-04-07T21:40:14.342Z,10.40
2019-04-07T21:42:45.816Z,10.30
2019-04-07T21:45:29.173Z,10.30
2019-04-07T21:47:46.845Z,10.30
2019-04-07T21:50:18.917Z,10.30
2019-04-07T21:52:54.711Z,10.30
2019-04-07T21:55:32.967Z,10.30
2019-04-07T21:58:16.646Z,10.30
2019-04-07T22:01:02.805Z,10.30
2019-04-07T22:03:49.256Z,10.20
2019-04-07T22:06:17.714Z,10.20
2019-04-07T22:08:47.142Z,10.20
2019-04-07T22:11:13.654Z,10.10
2019-04-07T22:13:40.761Z,10.10
2019-04-07T22:16:08.255Z,10.10
2019-04-07T22:18:37.415Z,10.00
2019-04-07T22:21:03.402Z,10.00
2019-04-07T22:23:31.506Z,9.90
2019-04-07T22:25:57.911Z,9.90
2019-04-07T22:28:27.741Z,9.90
2019-04-07T22:30:53.679Z,9.90
2019-04-07T22:33:22.883Z,9.90
2019-04-07T22:35:49.056Z,9.80
2019-04-07T22:38:19.713Z,9.80
2019-04-07T22:40:43.957Z,9.80
2019-04-07T22:43:10.224Z,9.80
2019-04-07T22:45:37.474Z,9.80
2019-04-07T22:48:03.710Z,9.80
2019-04-07T22:50:30.517Z,9.80
2019-04-07T22:52:58.309Z,9.70
2019-04-07T22:55:24.923Z,9.70
2019-04-07T22:57:51.614Z,9.60
2019-04-07T23:00:21.189Z,9.60
2019-04-07T23:02:49.850Z,9.50
2019-04-07T23:05:16.946Z,9.40
2019-04-07T23:07:43.814Z,9.30
2019-04-07T23:10:11.206Z,9.30
2019-04-07T23:12:38.181Z,9.20
2019-04-07T23:15:05.878Z,9.10
2019-04-07T23:17:32.280Z,9.00
2019-04-07T23:19:58.866Z,8.90
2019-04-07T23:22:25.661Z,8.80
2019-04-07T23:24:53.013Z,8.70
2019-04-07T23:27:20.056Z,8.50
2019-04-07T23:29:46.419Z,8.50
2019-04-07T23:32:12.838Z,8.50
2019-04-07T23:34:39.423Z,8.40
2019-04-07T23:37:06.099Z,8.40
2019-04-07T23:39:32.377Z,8.40
2019-04-07T23:41:58.750Z,8.40
2019-04-07T23:44:25.523Z,8.30
2019-04-07T23:46:52.846Z,8.30
2019-04-07T23:49:19.246Z,8.30
2019-04-07T23:51:45.606Z,8.20
2019-04-07T23:54:12.125Z,8.20
2019-04-07T23:56:39.798Z,8.20
2019-04-07T23:59:06.323Z,8.10
